Time,TemperatureF,DewpointF,PressureIn,WindDirection,WindDirectionDegrees,WindSpeedMPH,WindSpeedGustMPH,Humidity,HourlyPrecipIn,Conditions,Clouds,dailyrainin,SoftwareType,DateUTC
2013-08-14 00:11:00,65.0,53.0,-100.00,West,266,10.0,-999.0,66,0.00,,,-99.99,,2013-08-14 07:11:00,
2013-08-14 00:21:00,65.0,53.0,-100.00,West,266,10.0,-999.0,66,0.00,,,-99.99,,2013-08-14 07:21:00,
2013-08-14 00:31:00,65.0,53.0,-100.00,West,266,10.0,-999.0,66,0.00,,,-99.99,,2013-08-14 07:31:00,
2013-08-14 00:41:00,65.0,53.0,-100.00,West,266,10.0,-999.0,66,0.00,,,-99.99,,2013-08-14 07:41:00,
2013-08-14 01:11:00,64.0,53.0,-100.00,SW,235,7.0,-999.0,69,0.00,,,-99.99,,2013-08-14 08:11:00,
2013-08-14 01:21:00,64.0,53.0,-100.00,SW,235,7.0,-999.0,69,0.00,,,-99.99,,2013-08-14 08:21:00,
2013-08-14 01:31:00,64.0,53.0,-100.00,SW,235,7.0,-999.0,69,0.00,,,-99.99,,2013-08-14 08:31:00,
2013-08-14 01:41:00,64.0,53.0,-100.00,SW,235,7.0,-999.0,69,0.00,,,-99.99,,2013-08-14 08:41:00,
2013-08-14 02:11:00,63.0,53.0,-100.00,WSW,248,9.0,-999.0,70,0.00,,,-99.99,,2013-08-14 09:11:00,
2013-08-14 02:21:00,63.0,53.0,-100.00,WSW,248,9.0,-999.0,70,0.00,,,-99.99,,2013-08-14 09:21:00,
2013-08-14 02:33:00,63.0,53.0,-100.00,WSW,248,9.0,-999.0,70,0.00,,,-99.99,,2013-08-14 09:33:00,
2013-08-14 02:42:00,63.0,53.0,-100.00,WSW,248,9.0,-999.0,70,0.00,,,-99.99,,2013-08-14 09:42:00,
2013-08-14 03:11:00,61.0,53.0,-100.00,WSW,242,8.0,-999.0,73,0.00,,,-99.99,,2013-08-14 10:11:00,
2013-08-14 03:22:00,61.0,53.0,-100.00,WSW,242,8.0,-999.0,73,0.00,,,-99.99,,2013-08-14 10:22:00,
2013-08-14 03:32:00,61.0,53.0,-100.00,WSW,242,8.0,-999.0,73,0.00,,,-99.99,,2013-08-14 10:32:00,
2013-08-14 03:42:00,61.0,53.0,-100.00,WSW,242,8.0,-999.0,73,0.00,,,-99.99,,2013-08-14 10:42:00,
2013-08-14 04:11:00,59.0,53.0,-100.00,WSW,239,6.0,-999.0,78,0.00,,,-99.99,,2013-08-14 11:11:00,
2013-08-14 04:21:00,59.0,53.0,-100.00,WSW,239,6.0,-999.0,78,0.00,,,-99.99,,2013-08-14 11:21:00,
2013-08-14 04:32:00,59.0,53.0,-100.00,WSW,239,6.0,-999.0,78,0.00,,,-99.99,,2013-08-14 11:32:00,
2013-08-14 04:41:00,59.0,53.0,-100.00,WSW,239,6.0,-999.0,78,0.00,,,-99.99,,2013-08-14 11:41:00,
2013-08-14 05:11:00,59.0,53.0,-100.00,WSW,257,8.0,-999.0,78,0.00,,,-99.99,,2013-08-14 12:11:00,
2013-08-14 05:21:00,59.0,53.0,-100.00,WSW,257,8.0,-999.0,78,0.00,,,-99.99,,2013-08-14 12:21:00,
2013-08-14 05:31:00,59.0,53.0,-100.00,WSW,257,8.0,-999.0,78,0.00,,,-99.99,,2013-08-14 12:31:00,
2013-08-14 05:41:00,59.0,53.0,-100.00,WSW,257,8.0,-999.0,78,0.00,,,-99.99,,2013-08-14 12:41:00,
2013-08-14 06:11:00,58.0,53.0,-100.00,West,263,7.0,-999.0,81,0.00,,,-99.99,,2013-08-14 13:11:00,
2013-08-14 06:21:00,58.0,53.0,-100.00,West,263,7.0,-999.0,81,0.00,,,-99.99,,2013-08-14 13:21:00,
2013-08-14 06:31:00,58.0,53.0,-100.00,West,263,7.0,-999.0,81,0.00,,,-99.99,,2013-08-14 13:31:00,
2013-08-14 06:41:00,58.0,53.0,-100.00,West,263,7.0,-999.0,81,0.00,,,-99.99,,2013-08-14 13:41:00,
2013-08-14 07:11:00,59.0,54.0,-100.00,West,270,14.0,-999.0,84,0.00,,,-99.99,,2013-08-14 14:11:00,
2013-08-14 07:21:00,59.0,54.0,-100.00,West,270,14.0,-999.0,84,0.00,,,-99.99,,2013-08-14 14:21:00,
2013-08-14 07:32:00,59.0,54.0,-100.00,West,270,14.0,-999.0,84,0.00,,,-99.99,,2013-08-14 14:32:00,
2013-08-14 07:42:00,59.0,54.0,-100.00,West,270,14.0,-999.0,84,0.00,,,-99.99,,2013-08-14 14:42:00,
2013-08-14 08:11:00,60.0,54.0,-100.00,West,271,15.0,-999.0,80,0.00,,,-99.99,,2013-08-14 15:11:00,
2013-08-14 08:22:00,60.0,54.0,-100.00,West,271,15.0,-999.0,80,0.00,,,-99.99,,2013-08-14 15:22:00,
2013-08-14 08:33:00,60.0,54.0,-100.00,West,271,15.0,-999.0,80,0.00,,,-99.99,,2013-08-14 15:33:00,
2013-08-14 08:43:00,60.0,54.0,-100.00,West,271,15.0,-999.0,80,0.00,,,-99.99,,2013-08-14 15:43:00,
2013-08-14 09:13:00,62.0,55.0,-100.00,West,269,14.0,-999.0,76,0.00,,,-99.99,,2013-08-14 16:13:00,
2013-08-14 09:26:00,62.0,55.0,-100.00,West,269,14.0,-999.0,76,0.00,,,-99.99,,2013-08-14 16:26:00,
2013-08-14 09:33:00,62.0,55.0,-100.00,West,269,14.0,-999.0,76,0.00,,,-99.99,,2013-08-14 16:33:00,
2013-08-14 09:42:00,62.0,55.0,-100.00,West,269,14.0,-999.0,76,0.00,,,-99.99,,2013-08-14 16:42:00,
2013-08-14 10:20:00,67.0,54.0,-100.00,West,273,12.0,-999.0,63,0.00,,,-99.99,,2013-08-14 17:20:00,
2013-08-14 10:29:00,67.0,54.0,-100.00,West,273,12.0,-999.0,63,0.00,,,-99.99,,2013-08-14 17:29:00,
2013-08-14 10:35:00,67.0,54.0,-100.00,West,273,12.0,-999.0,63,0.00,,,-99.99,,2013-08-14 17:35:00,
2013-08-14 10:44:00,67.0,54.0,-100.00,West,273,12.0,-999.0,63,0.00,,,-99.99,,2013-08-14 17:44:00,
2013-08-14 10:45:00,-999.0,-99.9,-100.00,West,274,11.0,-999.0,-999,-99.99,,,-99.99,,2013-08-14 17:45:00,
2013-08-14 11:30:00,71.0,55.0,-100.00,West,274,11.0,-999.0,56,0.00,,,-99.99,,2013-08-14 18:30:00,
2013-08-14 11:39:00,71.0,55.0,-100.00,West,274,11.0,-999.0,56,0.00,,,-99.99,,2013-08-14 18:39:00,
2013-08-14 12:13:00,74.0,54.0,-100.00,West,276,12.0,-999.0,48,0.00,,,-99.99,,2013-08-14 19:13:00,
2013-08-14 12:35:00,74.0,54.0,-100.00,West,276,12.0,-999.0,48,0.00,,,-99.99,,2013-08-14 19:35:00,
2013-08-14 12:42:00,74.0,54.0,-100.00,West,276,12.0,-999.0,48,0.00,,,-99.99,,2013-08-14 19:42:00,
2013-08-14 12:45:00,78.0,53.0,-100.00,West,271,11.0,-999.0,42,0.00,,,-99.99,,2013-08-14 19:45:00,
2013-08-14 13:12:00,78.0,53.0,-100.00,West,271,11.0,-999.0,42,0.00,,,-99.99,,2013-08-14 20:12:00,
2013-08-14 13:45:00,82.0,53.0,-100.00,West,270,11.0,-999.0,37,0.00,,,-99.99,,2013-08-14 20:45:00,
2013-08-14 14:13:00,82.0,53.0,-100.00,West,270,11.0,-999.0,37,0.00,,,-99.99,,2013-08-14 21:13:00,
2013-08-14 14:23:00,82.0,53.0,-100.00,West,270,11.0,-999.0,37,0.00,,,-99.99,,2013-08-14 21:23:00,
2013-08-14 14:34:00,82.0,53.0,-100.00,West,270,11.0,-999.0,37,0.00,,,-99.99,,2013-08-14 21:34:00,
2013-08-14 15:13:00,85.0,52.0,-100.00,West,272,13.0,-999.0,33,0.00,,,-99.99,,2013-08-14 22:13:00,
2013-08-14 15:23:00,85.0,52.0,-100.00,West,272,13.0,-999.0,33,0.00,,,-99.99,,2013-08-14 22:23:00,
2013-08-14 15:34:00,85.0,52.0,-100.00,West,272,13.0,-999.0,33,0.00,,,-99.99,,2013-08-14 22:34:00,
2013-08-14 15:44:00,85.0,52.0,-100.00,West,272,13.0,-999.0,33,0.00,,,-99.99,,2013-08-14 22:44:00,
2013-08-14 15:45:00,85.0,51.0,-100.00,West,276,17.0,-999.0,31,0.00,,,-99.99,,2013-08-14 22:45:00,
2013-08-14 16:13:00,85.0,51.0,-100.00,West,276,17.0,-999.0,31,0.00,,,-99.99,,2013-08-14 23:13:00,
2013-08-14 16:24:00,85.0,51.0,-100.00,West,276,17.0,-999.0,31,0.00,,,-99.99,,2013-08-14 23:24:00,
2013-08-14 16:37:00,85.0,51.0,-100.00,West,276,17.0,-999.0,31,0.00,,,-99.99,,2013-08-14 23:37:00,
2013-08-14 17:23:00,84.0,51.0,-100.00,West,275,17.0,-999.0,32,0.00,,,-99.99,,2013-08-15 00:23:00,
2013-08-14 17:31:00,84.0,51.0,-100.00,West,275,17.0,-999.0,32,0.00,,,-99.99,,2013-08-15 00:31:00,
2013-08-14 17:42:00,84.0,51.0,-100.00,West,275,17.0,-999.0,32,0.00,,,-99.99,,2013-08-15 00:42:00,
2013-08-14 18:16:00,81.0,52.0,-100.00,West,262,17.0,-999.0,37,0.00,,,-99.99,,2013-08-15 01:16:00,
2013-08-14 18:22:00,81.0,52.0,-100.00,West,262,17.0,-999.0,37,0.00,,,-99.99,,2013-08-15 01:22:00,
2013-08-14 18:32:00,81.0,52.0,-100.00,West,262,17.0,-999.0,37,0.00,,,-99.99,,2013-08-15 01:32:00,
2013-08-14 18:42:00,81.0,52.0,-100.00,West,262,17.0,-999.0,37,0.00,,,-99.99,,2013-08-15 01:42:00,
2013-08-14 19:21:00,78.0,56.0,-100.00,West,266,16.0,-999.0,46,0.00,,,-99.99,,2013-08-15 02:21:00,
2013-08-14 19:31:00,78.0,56.0,-100.00,West,266,16.0,-999.0,46,0.00,,,-99.99,,2013-08-15 02:31:00,
2013-08-14 19:42:00,78.0,56.0,-100.00,West,266,16.0,-999.0,46,0.00,,,-99.99,,2013-08-15 02:42:00,
2013-08-14 20:11:00,75.0,57.0,-100.00,WSW,258,11.0,-999.0,53,0.00,,,-99.99,,2013-08-15 03:11:00,
2013-08-14 20:22:00,75.0,57.0,-100.00,WSW,258,11.0,-999.0,53,0.00,,,-99.99,,2013-08-15 03:22:00,
2013-08-14 20:33:00,75.0,57.0,-100.00,WSW,258,11.0,-999.0,53,0.00,,,-99.99,,2013-08-15 03:33:00,
2013-08-14 20:43:00,75.0,57.0,-100.00,WSW,258,11.0,-999.0,53,0.00,,,-99.99,,2013-08-15 03:43:00,
2013-08-14 21:22:00,70.0,58.0,-100.00,WSW,253,9.0,-999.0,66,0.00,,,-99.99,,2013-08-15 04:22:00,
2013-08-14 21:32:00,70.0,58.0,-100.00,WSW,253,9.0,-999.0,66,0.00,,,-99.99,,2013-08-15 04:32:00,
2013-08-14 21:42:00,70.0,58.0,-100.00,WSW,253,9.0,-999.0,66,0.00,,,-99.99,,2013-08-15 04:42:00,
2013-08-14 22:12:00,69.0,59.0,-100.00,WSW,250,12.0,-999.0,71,0.00,,,-99.99,,2013-08-15 05:12:00,
2013-08-14 22:22:00,69.0,59.0,-100.00,WSW,250,12.0,-999.0,71,0.00,,,-99.99,,2013-08-15 05:22:00,
2013-08-14 22:32:00,69.0,59.0,-100.00,WSW,250,12.0,-999.0,71,0.00,,,-99.99,,2013-08-15 05:32:00,
2013-08-14 22:42:00,69.0,59.0,-100.00,WSW,250,12.0,-999.0,71,0.00,,,-99.99,,2013-08-15 05:42:00,
2013-08-14 23:11:00,67.0,59.0,-100.00,WSW,257,9.0,-999.0,76,0.00,,,-99.99,,2013-08-15 06:11:00,
2013-08-14 23:21:00,67.0,59.0,-100.00,WSW,257,9.0,-999.0,76,0.00,,,-99.99,,2013-08-15 06:21:00,
2013-08-14 23:31:00,67.0,59.0,-100.00,WSW,257,9.0,-999.0,76,0.00,,,-99.99,,2013-08-15 06:31:00,
2013-08-14 23:41:00,67.0,59.0,-100.00,WSW,257,9.0,-999.0,76,0.00,,,-99.99,,2013-08-15 06:41:00,